Time;durP1;ratioP1;P1;durP2;ratioP2;P2;SDS_P1;SDS_P2;PMS_P1;PMS_P2;Temp;Humidity;BMP_temperature;BMP_pressure;BME280_temperature;BME280_humidity;BME280_pressure;Samples;Min_cycle;Max_cycle;Signal;HPM_P1;HPM_P2
2021/09/21 00:00:04;;;;;;;;;28.00;25.75;;;;;17.88;60.05;102191.72;5057885;28;45445;-79
2021/09/21 00:02:29;;;;;;;;;20.50;19.25;;;;;17.87;60.10;102200.41;5058270;28;45366;-79
2021/09/21 00:04:55;;;;;;;;;23.75;20.75;;;;;17.83;60.02;102188.94;5058056;28;45494;-79
2021/09/21 00:07:21;;;;;;;;;27.50;20.75;;;;;17.81;59.58;102198.44;5058287;28;45598;-78
2021/09/21 00:09:46;;;;;;;;;22.75;17.50;;;;;17.81;60.12;102213.28;5057839;28;45254;-78
2021/09/21 00:12:12;;;;;;;;;32.50;24.50;;;;;17.70;59.88;102194.53;5058234;28;45380;-78
2021/09/21 00:14:39;;;;;;;;;27.00;24.00;;;;;17.75;59.89;102212.22;5058465;28;45712;-78
2021/09/21 00:17:05;;;;;;;;;20.50;16.75;;;;;17.70;59.44;102207.63;5057731;28;46364;-78
2021/09/21 00:19:33;;;;;;;;;23.50;21.00;;;;;17.72;59.57;102211.22;5057894;28;45327;-78
2021/09/21 00:22:00;;;;;;;;;26.50;23.50;;;;;17.67;59.42;102210.13;5057499;28;45433;-78
2021/09/21 00:24:25;;;;;;;;;24.00;20.75;;;;;17.66;59.04;102216.19;5057956;28;45526;-79
2021/09/21 00:26:51;;;;;;;;;23.25;23.00;;;;;17.64;58.76;102213.53;5057534;28;46338;-79
2021/09/21 00:29:16;;;;;;;;;24.75;19.00;;;;;17.63;58.81;102203.88;5057617;28;45433;-78
2021/09/21 00:31:48;;;;;;;;;21.75;20.00;;;;;17.60;58.80;102199.44;5057835;28;45259;-78
2021/09/21 00:34:15;;;;;;;;;23.75;19.75;;;;;17.63;58.76;102209.13;5058231;28;45270;-79
2021/09/21 00:36:41;;;;;;;;;24.75;21.00;;;;;17.60;58.35;102204.66;5056184;28;45335;-78
2021/09/21 00:39:12;;;;;;;;;29.00;25.00;;;;;17.57;58.53;102214.13;5057961;28;45422;-79
2021/09/21 00:41:39;;;;;;;;;25.75;22.25;;;;;17.52;58.43;102213.97;5058029;28;45377;-79
2021/09/21 00:44:05;;;;;;;;;18.25;14.75;;;;;17.50;58.21;102215.63;5057624;28;45615;-79
2021/09/21 00:46:31;;;;;;;;;24.25;22.25;;;;;17.46;58.27;102214.63;5057327;28;45499;-79
2021/09/21 00:48:57;;;;;;;;;25.00;21.50;;;;;17.39;58.32;102199.47;5057207;28;45473;-79
2021/09/21 00:51:24;;;;;;;;;23.00;19.75;;;;;17.43;58.28;102209.25;5057532;28;45211;-79
2021/09/21 00:53:50;;;;;;;;;22.00;22.00;;;;;17.41;58.49;102210.03;5057615;28;45373;-79
2021/09/21 00:56:16;;;;;;;;;20.75;20.50;;;;;17.41;58.64;102210.91;5055713;28;46798;-79
2021/09/21 00:58:42;;;;;;;;;24.25;21.25;;;;;17.39;58.18;102209.94;5056942;28;45550;-78
2021/09/21 01:01:07;;;;;;;;;23.00;20.00;;;;;17.41;58.32;102220.50;5056386;28;45464;-79
2021/09/21 01:03:33;;;;;;;;;24.75;22.50;;;;;17.40;58.39;102229.19;5057582;28;45449;-79
2021/09/21 01:05:59;;;;;;;;;24.00;21.75;;;;;17.39;57.93;102236.13;5056724;28;45891;-78
2021/09/21 01:08:29;;;;;;;;;27.00;23.75;;;;;17.36;58.21;102232.50;5057093;28;45538;-78
2021/09/21 01:10:54;;;;;;;;;28.25;23.25;;;;;17.29;57.83;102229.66;5057029;28;45279;-79
2021/09/21 01:13:20;;;;;;;;;25.50;23.00;;;;;17.36;57.90;102233.41;5057410;28;45278;-78
2021/09/21 01:15:45;;;;;;;;;23.75;21.75;;;;;17.30;57.95;102220.97;5055490;27;46109;-78
2021/09/21 01:18:11;;;;;;;;;24.25;23.00;;;;;17.31;58.04;102220.16;5056954;28;45267;-79
2021/09/21 01:20:37;;;;;;;;;28.25;22.75;;;;;17.33;58.07;102228.94;5057398;28;45425;-78
2021/09/21 01:23:04;;;;;;;;;20.75;20.75;;;;;17.33;58.29;102241.13;5057058;28;45358;-79
2021/09/21 01:25:32;;;;;;;;;24.25;19.75;;;;;17.32;58.15;102234.13;5056291;28;46014;-79
2021/09/21 01:27:58;;;;;;;;;29.50;24.75;;;;;17.31;58.35;102233.25;5056565;28;45228;-79
2021/09/21 01:30:23;;;;;;;;;26.75;23.00;;;;;17.32;58.06;102229.78;5056888;28;45287;-78
2021/09/21 01:32:49;;;;;;;;;27.00;23.75;;;;;17.30;58.20;102239.31;5056898;28;45231;-78
2021/09/21 01:35:15;;;;;;;;;22.25;21.50;;;;;17.25;58.29;102224.25;5056018;28;45336;-78
2021/09/21 01:37:45;;;;;;;;;29.25;24.50;;;;;17.28;58.03;102237.44;5056417;27;45882;-78
2021/09/21 01:40:11;;;;;;;;;22.50;21.50;;;;;17.23;58.04;102239.88;5055289;28;45287;-78
2021/09/21 01:42:49;;;;;;;;;24.50;24.50;;;;;17.12;58.33;102239.44;5057192;28;45287;-79
2021/09/21 01:45:16;;;;;;;;;21.00;21.00;;;;;17.05;58.28;102236.50;5056410;28;46102;-78
2021/09/21 01:47:44;;;;;;;;;30.25;25.00;;;;;17.08;58.51;102244.50;5056275;28;45959;-78
2021/09/21 01:52:50;;;;;;;;;24.50;23.25;;;;;17.02;58.89;102253.84;5056413;28;45535;-78
2021/09/21 02:00:31;;;;;;;;;31.25;25.00;;;;;17.02;58.57;102258.22;5056728;28;45349;-79
2021/09/21 02:02:57;;;;;;;;;26.00;23.75;;;;;16.99;58.52;102239.75;5056344;28;45634;-79
2021/09/21 02:05:23;;;;;;;;;32.00;25.50;;;;;17.10;58.43;102253.31;5056109;28;45312;-78
2021/09/21 02:07:48;;;;;;;;;33.50;27.75;;;;;17.06;58.78;102259.22;5056147;28;45243;-78
2021/09/21 02:10:14;;;;;;;;;33.50;28.25;;;;;17.08;58.82;102263.69;5056645;28;45266;-77
2021/09/21 02:12:39;;;;;;;;;35.75;30.25;;;;;17.04;58.73;102255.66;5056175;28;45274;-78
2021/09/21 02:15:06;;;;;;;;;33.00;28.00;;;;;17.06;58.49;102265.34;5056193;28;45918;-79
2021/09/21 02:17:32;;;;;;;;;40.75;30.50;;;;;17.06;58.69;102267.97;5055299;28;45847;-78
2021/09/21 02:19:58;;;;;;;;;32.25;27.25;;;;;17.02;58.73;102261.72;5056267;28;45447;-78
2021/09/21 02:22:24;;;;;;;;;34.50;29.00;;;;;17.02;58.50;102266.06;5056576;28;45530;-78
2021/09/21 02:24:49;;;;;;;;;35.50;29.50;;;;;16.96;58.65;102263.19;5055564;28;45496;-78
2021/09/21 02:27:15;;;;;;;;;34.50;28.00;;;;;16.89;59.01;102256.78;5056326;28;45321;-79
2021/09/21 02:29:41;;;;;;;;;42.00;32.25;;;;;16.85;58.83;102266.19;5056391;28;45348;-78
2021/09/21 02:32:06;;;;;;;;;33.25;29.75;;;;;16.84;58.74;102274.91;5056592;28;45597;-78
2021/09/21 02:34:32;;;;;;;;;34.00;28.00;;;;;16.84;59.04;102280.13;5054574;28;46098;-78
2021/09/21 02:36:58;;;;;;;;;25.75;24.25;;;;;16.85;59.12;102286.25;5055754;28;45273;-78
2021/09/21 02:39:23;;;;;;;;;35.75;29.00;;;;;16.85;59.25;102281.00;5056101;28;45333;-79
2021/09/21 02:41:49;;;;;;;;;35.25;31.25;;;;;16.82;59.14;102278.25;5055881;28;45326;-78
2021/09/21 02:44:14;;;;;;;;;40.00;30.75;;;;;16.80;59.11;102282.53;5055524;28;45974;-78
2021/09/21 02:46:40;;;;;;;;;33.25;29.75;;;;;16.76;59.20;102272.78;5057525;28;45410;-78
2021/09/21 02:49:05;;;;;;;;;29.00;27.50;;;;;16.71;59.11;102265.63;5059375;28;45400;-79
2021/09/21 02:51:31;;;;;;;;;36.50;31.25;;;;;16.70;59.38;102266.44;5059631;28;45242;-78
2021/09/21 02:53:57;;;;;;;;;39.25;30.25;;;;;16.72;59.42;102279.59;5058976;28;46275;-79
2021/09/21 02:56:22;;;;;;;;;41.00;32.00;;;;;16.68;59.12;102277.69;5059121;28;45288;-78
2021/09/21 02:58:48;;;;;;;;;41.25;31.75;;;;;16.67;59.33;102271.56;5059086;28;45398;-79
2021/09/21 03:01:13;;;;;;;;;40.25;32.50;;;;;16.69;59.38;102282.97;5059379;28;45391;-80
2021/09/21 03:03:50;;;;;;;;;31.75;28.50;;;;;16.68;59.57;102293.38;5059280;28;45293;-79
2021/09/21 03:06:22;;;;;;;;;40.50;34.75;;;;;16.67;59.72;102283.72;5058930;28;45321;-80
2021/09/21 03:08:49;;;;;;;;;40.50;33.00;;;;;16.66;59.66;102285.47;5058878;28;45463;-80
2021/09/21 03:11:20;;;;;;;;;39.00;33.25;;;;;16.67;59.16;102286.34;5059207;28;45404;-80
2021/09/21 03:18:56;;;;;;;;;35.00;30.50;;;;;16.70;59.35;102300.44;5059148;28;45831;-80
2021/09/21 03:21:22;;;;;;;;;37.25;33.25;;;;;16.70;59.47;102305.66;5059055;28;45519;-79
2021/09/21 03:23:48;;;;;;;;;39.50;33.25;;;;;16.69;59.20;102300.38;5058437;28;46229;-80
2021/09/21 03:26:14;;;;;;;;;46.00;33.50;;;;;16.68;59.56;102293.38;5058821;28;45440;-79
2021/09/21 03:28:39;;;;;;;;;39.25;34.50;;;;;16.68;59.23;102293.38;5059267;28;45397;-80
2021/09/21 03:31:05;;;;;;;;;41.50;34.00;;;;;16.71;59.20;102302.22;5058717;28;45383;-79
2021/09/21 03:33:31;;;;;;;;;40.75;34.75;;;;;16.71;59.40;102306.59;5058505;28;45495;-79
2021/09/21 03:35:56;;;;;;;;;38.75;32.75;;;;;16.72;59.26;102308.38;5058263;28;45409;-80
2021/09/21 03:38:22;;;;;;;;;39.50;33.25;;;;;16.77;58.73;102313.81;5058739;28;45425;-79
2021/09/21 03:40:47;;;;;;;;;32.75;28.50;;;;;16.76;59.10;102298.94;5058582;28;45587;-79
2021/09/21 03:43:13;;;;;;;;;41.25;35.25;;;;;16.70;58.89;102296.94;5058376;28;45428;-78
2021/09/21 03:45:39;;;;;;;;;44.00;36.00;;;;;16.66;58.68;102285.47;5058583;28;45329;-79
2021/09/21 03:48:07;;;;;;;;;36.50;33.25;;;;;16.71;58.99;102302.22;5058451;28;45330;-80
2021/09/21 03:50:34;;;;;;;;;35.50;31.25;;;;;16.74;59.43;102314.53;5058746;28;45637;-78
2021/09/21 03:53:00;;;;;;;;;45.00;33.00;;;;;16.75;59.24;102291.91;5057963;27;45413;-78
2021/09/21 03:55:26;;;;;;;;;42.75;35.25;;;;;16.83;58.97;102307.13;5058133;28;45951;-79
2021/09/21 03:57:51;;;;;;;;;39.00;34.50;;;;;16.87;58.70;102309.03;5057740;28;45393;-78
2021/09/21 04:00:18;;;;;;;;;41.25;34.75;;;;;16.89;59.12;102309.09;5058489;28;45587;-79
2021/09/21 04:02:43;;;;;;;;;36.25;32.00;;;;;16.77;58.68;102296.38;5057783;28;45911;-78
2021/09/21 04:05:09;;;;;;;;;23.75;20.00;;;;;16.80;58.59;102308.69;5058438;28;45451;-79
2021/09/21 04:07:35;;;;;;;;;38.00;34.50;;;;;16.76;58.49;102304.16;5058305;28;45240;-79
2021/09/21 04:10:01;;;;;;;;;41.50;35.00;;;;;16.80;58.35;102319.16;5058237;28;45839;-80
2021/09/21 04:12:26;;;;;;;;;40.75;33.50;;;;;16.66;58.49;102298.53;5057946;28;46379;-79
2021/09/21 04:14:52;;;;;;;;;40.25;33.50;;;;;16.65;58.46;102320.28;5057930;28;45731;-79
2021/09/21 04:17:18;;;;;;;;;35.75;28.00;;;;;16.66;58.46;102335.16;5058138;28;45365;-79
2021/09/21 04:19:43;;;;;;;;;40.00;35.00;;;;;16.62;58.66;102338.44;5057904;28;45583;-79
2021/09/21 04:22:09;;;;;;;;;45.00;34.75;;;;;16.59;58.64;102340.91;5056690;28;45573;-79
2021/09/21 04:24:36;;;;;;;;;41.25;36.00;;;;;16.59;58.97;102340.03;5057392;28;45321;-79
2021/09/21 04:27:03;;;;;;;;;40.50;32.75;;;;;16.59;59.04;102346.16;5056188;28;45420;-79
2021/09/21 04:29:29;;;;;;;;;48.50;37.00;;;;;16.55;58.88;102346.84;5058151;28;45466;-78
2021/09/21 04:31:59;;;;;;;;;39.75;34.50;;;;;16.47;59.43;102343.88;5057351;28;45394;-77
2021/09/21 04:34:25;;;;;;;;;45.25;34.75;;;;;16.45;59.30;102353.38;5057459;28;45945;-77
2021/09/21 04:36:52;;;;;;;;;42.25;35.25;;;;;16.34;59.33;102339.84;5057311;28;45330;-77
2021/09/21 04:39:18;;;;;;;;;48.50;37.50;;;;;16.36;59.29;102355.56;5057909;28;45551;-78
2021/09/21 04:41:44;;;;;;;;;44.25;36.75;;;;;16.28;59.67;102346.50;5057122;28;45422;-77
2021/09/21 04:44:09;;;;;;;;;46.00;37.75;;;;;16.27;59.71;102352.53;5057842;28;45259;-78
2021/09/21 04:46:35;;;;;;;;;50.50;39.00;;;;;16.24;59.70;102351.56;5073627;28;45399;-77
2021/09/21 04:49:04;;;;;;;;;45.25;36.75;;;;;16.19;59.54;102353.09;5056610;28;45606;-78
2021/09/21 04:51:31;;;;;;;;;47.00;38.00;;;;;16.17;59.87;102341.66;5056933;28;46032;-77
2021/09/21 04:53:56;;;;;;;;;49.25;39.50;;;;;16.08;59.96;102333.41;5057404;28;45518;-77
2021/09/21 04:56:22;;;;;;;;;49.00;36.25;;;;;16.15;59.74;102345.00;5057206;28;45342;-77
2021/09/21 04:58:48;;;;;;;;;41.75;34.75;;;;;16.11;59.63;102335.25;5057225;27;45300;-77
2021/09/21 05:01:14;;;;;;;;;40.25;34.25;;;;;16.11;59.54;102328.28;5056959;28;46111;-77
2021/09/21 05:03:39;;;;;;;;;46.25;35.50;;;;;16.12;59.54;102347.50;5057087;27;45382;-78
2021/09/21 05:06:05;;;;;;;;;44.75;35.75;;;;;16.08;59.06;102346.47;5057198;28;45361;-78
2021/09/21 05:08:30;;;;;;;;;37.50;32.00;;;;;15.99;59.26;102349.53;5056240;28;45342;-78
2021/09/21 05:10:56;;;;;;;;;37.00;32.25;;;;;15.91;59.39;102341.31;5056098;28;45319;-78
2021/09/21 05:13:22;;;;;;;;;41.50;32.50;;;;;15.88;58.86;102346.41;5056874;28;45271;-78
2021/09/21 05:15:48;;;;;;;;;46.50;36.00;;;;;15.95;59.52;102355.41;5055281;28;45483;-78
2021/09/21 05:18:14;;;;;;;;;38.75;34.25;;;;;15.91;59.12;102354.38;5057135;28;45263;-77
2021/09/21 05:20:40;;;;;;;;;41.75;34.00;;;;;15.89;59.27;102356.03;5056524;28;45524;-78
2021/09/21 05:23:06;;;;;;;;;40.00;33.00;;;;;15.91;58.89;102366.56;5055369;28;46449;-78
2021/09/21 05:25:31;;;;;;;;;41.75;34.50;;;;;15.88;59.13;102362.06;5055042;28;45468;-78
2021/09/21 05:27:57;;;;;;;;;38.75;32.25;;;;;15.88;59.04;102375.13;5056132;28;45672;-79
2021/09/21 05:30:23;;;;;;;;;44.00;35.25;;;;;15.79;58.99;102367.72;5056225;28;45432;-78
2021/09/21 05:32:48;;;;;;;;;37.25;32.00;;;;;15.74;59.12;102370.94;5056224;28;45281;-79
2021/09/21 05:35:14;;;;;;;;;43.50;36.00;;;;;15.76;58.92;102383.25;5056480;28;45315;-79
2021/09/21 05:37:39;;;;;;;;;40.50;32.00;;;;;15.79;58.67;102387.72;5056873;28;45220;-79
2021/09/21 05:40:07;;;;;;;;;36.00;30.50;;;;;15.69;58.55;102386.38;5055315;28;46461;-78
2021/09/21 05:42:36;;;;;;;;;44.00;33.75;;;;;15.73;58.42;102398.75;5055010;28;45304;-78
2021/09/21 05:45:08;;;;;;;;;34.75;30.75;;;;;15.70;58.79;102401.22;5054469;28;45363;-78
2021/09/21 05:47:33;;;;;;;;;37.75;31.50;;;;;15.61;58.99;102387.69;5054580;28;45781;-78
2021/09/21 05:49:59;;;;;;;;;39.25;32.00;;;;;15.68;58.56;102405.47;5055563;28;46280;-79
2021/09/21 05:52:25;;;;;;;;;41.00;32.50;;;;;15.71;58.45;102407.34;5056159;28;45423;-78
2021/09/21 05:54:50;;;;;;;;;33.75;25.50;;;;;15.65;58.55;102402.72;5055255;28;45518;-82
2021/09/21 05:57:16;;;;;;;;;42.00;32.50;;;;;15.59;58.20;102395.47;5060398;28;45543;-78
2021/09/21 05:59:42;;;;;;;;;36.00;32.00;;;;;15.60;58.05;102414.66;5057709;28;45958;-78
2021/09/21 06:02:07;;;;;;;;;35.75;30.50;;;;;15.48;57.93;102417.53;5055564;28;45339;-79
2021/09/21 06:04:34;;;;;;;;;33.25;30.00;;;;;15.40;58.16;102406.69;5056636;28;45258;-80
2021/09/21 06:07:02;;;;;;;;;36.25;31.75;;;;;15.32;58.59;102401.09;5055775;28;45345;-83
2021/09/21 06:09:28;;;;;;;;;38.75;32.75;;;;;15.37;58.18;102411.78;5055935;28;45817;-81
2021/09/21 06:11:53;;;;;;;;;31.25;29.00;;;;;15.40;58.48;102419.75;5056015;28;45345;-79
2021/09/21 06:14:19;;;;;;;;;29.75;27.00;;;;;15.32;57.93;102413.25;5056549;28;45468;-83
2021/09/21 06:16:44;;;;;;;;;32.00;30.25;;;;;15.30;58.24;102420.09;5055871;28;45313;-82
2021/09/21 06:19:10;;;;;;;;;32.75;30.00;;;;;15.32;57.75;102435.03;5055463;28;45578;-81
2021/09/21 06:21:36;;;;;;;;;34.00;30.00;;;;;15.31;57.70;102435.84;5055616;28;45441;-81
2021/09/21 06:24:02;;;;;;;;;33.00;26.75;;;;;15.25;57.73;102417.25;5055624;28;45377;-80
2021/09/21 06:26:28;;;;;;;;;32.25;29.25;;;;;15.33;57.84;102438.53;5055365;28;45351;-81
2021/09/21 06:28:54;;;;;;;;;33.00;27.50;;;;;15.37;58.05;102443.09;5054194;28;45447;-89
2021/09/21 06:31:20;;;;;;;;;32.25;29.25;;;;;15.37;57.55;102443.09;5056284;28;45294;-83
2021/09/21 06:33:45;;;;;;;;;28.50;25.00;;;;;15.38;57.14;102449.19;5047264;28;45416;-76
2021/09/21 06:36:11;;;;;;;;;30.25;27.75;;;;;15.36;57.30;102454.34;5052918;28;45608;-78
2021/09/21 06:38:38;;;;;;;;;34.25;27.00;;;;;15.35;57.50;102456.84;5053647;28;45998;-78
2021/09/21 06:41:05;;;;;;;;;28.50;25.00;;;;;15.30;57.51;102454.00;5054390;28;45447;-79
2021/09/21 06:43:31;;;;;;;;;25.25;23.25;;;;;15.35;56.92;102462.06;5054575;28;45471;-81
2021/09/21 06:45:57;;;;;;;;;29.50;28.00;;;;;15.39;57.24;102462.31;5054775;28;45438;-77
2021/09/21 06:48:24;;;;;;;;;36.25;28.50;;;;;15.36;56.98;102471.69;5053744;28;45807;-77
2021/09/21 06:50:51;;;;;;;;;25.00;23.25;;;;;15.39;56.68;102469.25;5048687;28;45702;-76
2021/09/21 06:53:17;;;;;;;;;19.50;16.00;;;;;15.42;56.75;102477.25;5055170;28;45322;-78
2021/09/21 06:55:42;;;;;;;;;28.25;24.75;;;;;15.38;56.39;102471.00;5055259;28;45626;-77
2021/09/21 06:58:08;;;;;;;;;28.50;23.50;;;;;15.39;56.49;102475.38;5048895;28;45425;-76
2021/09/21 07:00:38;;;;;;;;;34.50;29.25;;;;;15.41;56.62;102484.16;5063460;28;45568;-76
2021/09/21 07:03:06;;;;;;;;;23.75;23.25;;;;;15.36;55.95;102476.91;5051348;28;45386;-77
2021/09/21 07:05:33;;;;;;;;;26.50;24.50;;;;;15.35;55.86;102478.66;5049138;28;45557;-78
2021/09/21 07:08:00;;;;;;;;;25.50;23.00;;;;;15.51;56.08;102497.69;5052606;28;45756;-77
2021/09/21 07:10:26;;;;;;;;;20.25;18.25;;;;;15.54;55.52;102492.66;5047130;28;46060;-80
2021/09/21 07:12:51;;;;;;;;;21.25;20.25;;;;;15.52;55.05;102500.41;5050243;28;45733;-78
2021/09/21 07:15:22;;;;;;;;;22.25;19.25;;;;;15.52;55.14;102504.72;5053314;28;45616;-78
2021/09/21 07:17:48;;;;;;;;;26.00;22.00;;;;;15.50;55.03;102507.25;5050569;28;46149;-78
2021/09/21 07:20:14;;;;;;;;;21.00;19.00;;;;;15.47;54.73;102504.47;5054614;28;45628;-80
2021/09/21 07:22:40;;;;;;;;;20.75;18.25;;;;;15.41;54.65;102501.56;5055189;28;45437;-79
2021/09/21 07:25:06;;;;;;;;;23.50;19.50;;;;;15.43;54.68;102507.75;5055851;28;45844;-78
2021/09/21 07:27:32;;;;;;;;;18.50;17.75;;;;;15.42;54.34;102516.41;5054240;28;45998;-78
2021/09/21 07:29:59;;;;;;;;;17.50;16.75;;;;;15.40;54.64;102503.25;5054457;28;45358;-79
2021/09/21 07:32:24;;;;;;;;;23.25;19.25;;;;;15.42;54.36;102517.28;5054665;28;45390;-79
2021/09/21 07:34:51;;;;;;;;;20.00;18.00;;;;;15.41;53.89;102522.44;5057955;28;45288;-77
2021/09/21 07:37:17;;;;;;;;;18.75;16.75;;;;;15.46;53.38;102527.09;5056923;28;45521;-78
2021/09/21 07:39:43;;;;;;;;;16.50;13.75;;;;;15.52;53.72;102530.81;5056566;28;45422;-78
2021/09/21 07:42:09;;;;;;;;;19.00;14.50;;;;;15.58;54.25;102537.25;5058043;28;45346;-81
2021/09/21 07:44:34;;;;;;;;;18.75;16.75;;;;;15.68;53.67;102529.91;5057653;28;45388;-77
2021/09/21 07:47:00;;;;;;;;;18.25;14.75;;;;;15.78;53.57;102542.59;5051671;28;46187;-74
2021/09/21 07:49:26;;;;;;;;;20.00;17.00;;;;;15.78;52.96;102533.06;5057485;28;45452;-74
2021/09/21 07:51:51;;;;;;;;;17.25;16.75;;;;;15.70;52.35;102512.59;5057026;28;45800;-73
2021/09/21 07:54:17;;;;;;;;;19.25;15.75;;;;;15.83;51.96;102530.69;5057256;28;45618;-74
2021/09/21 07:56:44;;;;;;;;;15.25;15.25;;;;;15.86;52.24;102530.91;5056437;28;45343;-74
2021/09/21 07:59:10;;;;;;;;;17.75;14.25;;;;;15.90;52.07;102532.81;5056056;28;45876;-74
2021/09/21 08:01:40;;;;;;;;;13.75;11.00;;;;;15.93;51.87;102537.28;5057567;28;45379;-74
2021/09/21 08:04:07;;;;;;;;;16.25;14.50;;;;;15.95;51.99;102533.06;5058551;28;45489;-74
2021/09/21 08:06:37;;;;;;;;;13.00;12.25;;;;;15.91;51.08;102523.28;5056715;28;45894;-74
2021/09/21 08:09:03;;;;;;;;;10.50;10.25;;;;;16.03;51.69;102536.97;5056670;28;45437;-75
2021/09/21 08:11:29;;;;;;;;;13.25;11.50;;;;;16.03;51.40;102533.44;5056336;28;45433;-75
2021/09/21 08:13:55;;;;;;;;;10.00;9.75;;;;;16.08;51.05;102543.31;5056206;28;45279;-75
2021/09/21 08:16:21;;;;;;;;;10.00;10.00;;;;;16.12;51.50;102540.84;5053383;28;45477;-75
2021/09/21 08:18:47;;;;;;;;;14.75;11.50;;;;;16.14;50.36;102541.84;5053694;28;45584;-76
2021/09/21 08:21:12;;;;;;;;;11.25;11.00;;;;;16.12;50.40;102544.34;5057329;28;45903;-75
2021/09/21 08:23:38;;;;;;;;;11.00;10.75;;;;;16.09;50.57;102539.88;5057554;28;45288;-75
2021/09/21 08:26:04;;;;;;;;;15.25;13.00;;;;;16.16;50.11;102546.31;5057068;28;45941;-75
2021/09/21 08:28:30;;;;;;;;;13.00;11.25;;;;;16.16;50.69;102537.56;5055529;28;45279;-75
2021/09/21 08:30:56;;;;;;;;;10.00;8.75;;;;;16.14;50.05;102534.88;5057262;28;45319;-74
2021/09/21 08:33:22;;;;;;;;;12.75;11.25;;;;;16.15;49.43;102540.97;5057789;28;45556;-79
2021/09/21 08:35:48;;;;;;;;;10.00;9.50;;;;;16.19;49.40;102545.56;5056753;28;45397;-78
2021/09/21 08:38:14;;;;;;;;;9.25;9.00;;;;;16.15;49.36;102554.06;5057826;28;45386;-77
2021/09/21 08:40:39;;;;;;;;;10.75;10.00;;;;;16.09;49.12;102559.88;5056781;28;45416;-77
2021/09/21 08:43:05;;;;;;;;;11.75;10.75;;;;;16.08;49.25;102548.53;5057330;28;45584;-77
2021/09/21 08:45:31;;;;;;;;;5.75;4.00;;;;;16.12;49.02;102554.81;5055145;28;46590;-76
2021/09/21 08:47:56;;;;;;;;;9.50;9.50;;;;;16.11;48.02;102565.19;5056690;28;45834;-76
2021/09/21 08:50:24;;;;;;;;;13.25;11.00;;;;;16.08;48.45;102568.56;5056918;28;45326;-77
2021/09/21 08:52:50;;;;;;;;;12.25;8.50;;;;;16.09;48.45;102563.41;5056851;28;45319;-77
2021/09/21 08:55:16;;;;;;;;;8.25;8.25;;;;;16.09;48.59;102563.41;5072122;28;46879;-78
2021/09/21 08:57:43;;;;;;;;;7.75;6.75;;;;;16.16;48.65;102572.44;5056519;28;45698;-77
2021/09/21 09:00:14;;;;;;;;;9.25;9.25;;;;;16.15;48.44;102575.88;5056855;28;45368;-77
2021/09/21 09:02:39;;;;;;;;;10.25;10.00;;;;;16.19;48.45;102563.84;5057011;28;45411;-77
2021/09/21 09:05:07;;;;;;;;;8.50;8.50;;;;;16.24;47.97;102570.22;5056722;28;45822;-77
2021/09/21 09:07:51;;;;;;;;;8.50;8.25;;;;;16.28;48.44;102572.16;5072098;27;45446;-77
2021/09/21 09:10:18;;;;;;;;;11.50;8.50;;;;;16.33;48.11;102564.53;5055533;28;45294;-79
2021/09/21 09:12:45;;;;;;;;;13.00;9.00;;;;;16.32;48.05;102560.13;5056820;28;45375;-81
2021/09/21 09:15:16;;;;;;;;;10.25;10.00;;;;;16.33;48.10;102552.38;5036442;28;45322;-79
2021/09/21 09:18:05;;;;;;;;;7.00;7.00;;;;;16.44;47.82;102565.06;5036187;28;45681;-79
2021/09/21 09:20:39;;;;;;;;;10.00;9.00;;;;;16.47;47.76;102578.28;5036221;28;45358;-79
2021/09/21 09:23:07;;;;;;;;;8.75;6.25;;;;;16.48;47.54;102580.06;5037004;28;45359;-83
2021/09/21 09:25:46;;;;;;;;;9.00;9.00;;;;;16.53;48.14;102574.25;5036333;28;45698;-78
2021/09/21 09:28:23;;;;;;;;;6.00;5.50;;;;;16.58;47.89;102577.06;5038662;28;45525;-81
2021/09/21 09:30:50;;;;;;;;;14.25;10.75;;;;;16.56;48.20;102563.06;5037172;28;45478;-85
2021/09/21 09:33:16;;;;;;;;;9.75;9.75;;;;;16.73;47.63;102571.72;5037228;28;45361;-75
2021/09/21 09:35:44;;;;;;;;;10.00;10.00;;;;;16.62;47.51;102572.91;5035533;28;45512;-76
2021/09/21 09:38:14;;;;;;;;;14.00;11.50;;;;;16.67;47.29;102582.78;5036078;28;45409;-75
2021/09/21 09:40:45;;;;;;;;;12.00;10.25;;;;;16.68;47.48;102581.94;5037054;28;45436;-76
2021/09/21 09:43:15;;;;;;;;;11.25;10.75;;;;;16.65;47.80;102562.59;5035414;28;45352;-78
2021/09/21 09:45:44;;;;;;;;;14.75;13.50;;;;;16.69;47.81;102569.75;5036079;28;46356;-80
2021/09/21 09:48:13;;;;;;;;;8.75;8.75;;;;;16.77;47.54;102572.75;5035153;28;45316;-76
2021/09/21 09:50:42;;;;;;;;;10.25;9.00;;;;;16.84;47.72;102582.66;5035214;28;45466;-76
2021/09/21 09:53:21;;;;;;;;;13.50;12.50;;;;;16.83;47.45;102580.88;5036307;28;45537;-76
2021/09/21 09:55:49;;;;;;;;;16.50;12.00;;;;;16.90;47.58;102568.97;5033617;28;46103;-74
2021/09/21 09:58:16;;;;;;;;;14.00;13.00;;;;;16.93;47.54;102567.41;5034368;28;45700;-75
2021/09/21 10:00:42;;;;;;;;;15.25;14.50;;;;;16.95;47.31;102565.78;5034102;28;45526;-74
2021/09/21 10:03:08;;;;;;;;;14.50;13.75;;;;;17.05;47.56;102574.06;5036113;28;45317;-74
2021/09/21 10:05:39;;;;;;;;;13.75;11.25;;;;;17.12;47.32;102583.97;5035248;28;45610;-76
2021/09/21 10:08:07;;;;;;;;;15.00;13.00;;;;;17.13;47.65;102575.31;5035378;28;45797;-74
2021/09/21 10:10:34;;;;;;;;;15.50;14.25;;;;;17.18;47.67;102581.66;5034650;28;45298;-76
2021/09/21 10:13:02;;;;;;;;;13.50;12.25;;;;;17.22;47.71;102585.31;5037239;28;45503;-76
2021/09/21 10:15:29;;;;;;;;;6.50;6.50;;;;;17.23;48.12;102588.00;5054637;28;46141;-76
2021/09/21 10:18:00;;;;;;;;;17.25;15.00;;;;;17.29;47.92;102590.91;5048539;28;45603;-79
2021/09/21 10:20:41;;;;;;;;;17.25;15.25;;;;;17.33;47.50;102582.34;5053365;28;45496;-79
2021/09/21 10:23:09;;;;;;;;;16.00;14.75;;;;;17.37;47.43;102582.50;5053994;28;45442;-76
2021/09/21 10:25:40;;;;;;;;;16.75;12.50;;;;;17.33;47.31;102565.75;5051728;28;46334;-75
2021/09/21 10:28:20;;;;;;;;;17.00;14.25;;;;;17.34;47.41;102575.41;5048841;28;46016;-78
2021/09/21 10:30:59;;;;;;;;;20.25;17.75;;;;;17.34;47.85;102583.25;5031307;28;46483;-76
2021/09/21 10:33:28;;;;;;;;;18.75;17.75;;;;;17.31;47.33;102576.19;5053976;28;45570;-80
2021/09/21 10:35:55;;;;;;;;;13.25;11.75;;;;;17.32;47.30;102587.53;5054732;28;45556;-76
2021/09/21 10:38:22;;;;;;;;;21.25;18.50;;;;;17.36;47.40;102584.25;5053797;28;45814;-75
2021/09/21 10:41:00;;;;;;;;;20.00;18.00;;;;;17.38;47.16;102586.91;5055927;28;45497;-75
2021/09/21 10:43:29;;;;;;;;;18.25;16.75;;;;;17.39;47.55;102584.34;5057378;28;45480;-77
2021/09/21 10:46:08;;;;;;;;;13.00;13.00;;;;;17.46;47.68;102585.53;5049263;28;45400;-79
2021/09/21 10:48:38;;;;;;;;;18.50;15.75;;;;;17.53;47.75;102584.09;5054272;28;45857;-78
2021/09/21 10:51:07;;;;;;;;;17.50;15.50;;;;;17.53;48.22;102576.22;5052379;28;45805;-83
2021/09/21 10:53:33;;;;;;;;;189.00;171.25;;;;;17.65;47.94;102582.00;5052973;28;45672;-85
2021/09/21 10:56:07;;;;;;;;;52.00;41.00;;;;;17.73;47.49;102579.75;5058388;28;45493;-80
2021/09/21 10:58:33;;;;;;;;;55.50;44.50;;;;;17.78;47.64;102583.44;5056710;28;45256;-78
2021/09/21 11:01:00;;;;;;;;;27.00;18.00;;;;;17.79;47.02;102578.28;5056539;28;45401;-78
2021/09/21 11:03:29;;;;;;;;;21.50;19.75;;;;;17.90;47.43;102577.84;5056345;28;45437;-82
2021/09/21 11:05:58;;;;;;;;;19.75;18.50;;;;;17.92;47.41;102569.22;5056636;28;46027;-82
2021/09/21 11:08:34;;;;;;;;;20.00;16.00;;;;;17.77;46.65;102551.13;5058231;28;45451;-80
2021/09/21 11:11:04;;;;;;;;;23.00;21.00;;;;;17.85;46.35;102563.63;5061763;28;45373;-85
2021/09/21 11:13:41;;;;;;;;;19.50;16.75;;;;;17.90;46.61;102570.88;5063978;27;45638;-83
2021/09/21 11:16:10;;;;;;;;;20.50;15.00;;;;;17.91;47.03;102567.41;5052405;28;45373;-81
2021/09/21 11:18:36;;;;;;;;;14.75;14.50;;;;;18.02;47.17;102567.00;5058143;28;45415;-78
2021/09/21 11:21:07;;;;;;;;;22.75;18.75;;;;;18.05;47.31;102559.28;5058189;28;45315;-77